Observation data for Amherst on 11/19/2019      Previous  Date       Current Mesonet Observations  Soil Data  Daily Summary Page  Observations in Plain Language
KAMH 190600Z 19002KT 07/M02 A2999 RMK A01 T00681023  RH  053%=      5-min Rain = 0
KAMH 190605Z 19003KT 07/M02 A2999 RMK A01 T00721018  RH  053%=      5-min Rain = 0
KAMH 190610Z 19003KT 07/M02 A2999 RMK A01 T00741019  RH  052%=      5-min Rain = 0
KAMH 190615Z 20003KT 08/M02 A2999 RMK A01 T00761019  RH  051%=      5-min Rain = 0
KAMH 190620Z 21004KT 07/M03 A2999 RMK A01 T00651025  RH  053%=      5-min Rain = 0
KAMH 190625Z 21004KT 05/M03 A2999 RMK A01 T00481026  RH  059%=      5-min Rain = 0
KAMH 190630Z 21004KT 05/M02 A2999 RMK A01 T00471023  RH  061%=      5-min Rain = 0
KAMH 190635Z 21004KT 05/M02 A2999 RMK A01 T00511022  RH  060%=      5-min Rain = 0
KAMH 190640Z 22005KT 05/M02 A2999 RMK A01 T00521023  RH  059%=      5-min Rain = 0
KAMH 190645Z 23005KT 05/M02 A30 RMK A01 T00491024  RH  060%=      5-min Rain = 0
KAMH 190650Z 22004KT 05/M02 A30 RMK A01 T00481022  RH  061%=      5-min Rain = 0
KAMH 190655Z 22005KT 04/M03 A30 RMK A01 T00441025  RH  062%=      5-min Rain = 0
KAMH 190700Z 22004KT 05/M02 A30 RMK A01 T00451024  RH  061%=      5-min Rain = 0
KAMH 190705Z 22004KT 05/M02 A30 RMK A01 T00501022  RH  060%=      5-min Rain = 0
KAMH 190710Z 22004KT 05/M02 A30 RMK A01 T00481024  RH  060%=      5-min Rain = 0
KAMH 190715Z 23005KT 04/M03 A30 RMK A01 T00441025  RH  061%=      5-min Rain = 0
KAMH 190720Z 22004KT 04/M02 A30 RMK A01 T00431023  RH  063%=      5-min Rain = 0
KAMH 190725Z 22005KT 05/M02 A30 RMK A01 T00471021  RH  062%=      5-min Rain = 0
KAMH 190730Z 22004KT 05/M02 A2999 RMK A01 T00511022  RH  060%=      5-min Rain = 0
KAMH 190735Z 21002KT 05/M02 A2999 RMK A01 T00531022  RH  059%=      5-min Rain = 0
KAMH 190740Z 21002KT 05/M02 A2999 RMK A01 T00521022  RH  059%=      5-min Rain = 0
KAMH 190745Z 21002KT 06/M02 A2999 RMK A01 T00621019  RH  057%=      5-min Rain = 0
KAMH 190750Z 22002KT 06/M02 A2999 RMK A01 T00561024  RH  057%=      5-min Rain = 0
KAMH 190755Z 22002KT 05/M02 A2999 RMK A01 T00521023  RH  059%=      5-min Rain = 0
KAMH 190800Z 18001KT 05/M03 A2999 RMK A01 T00461027  RH  060%=      5-min Rain = 0
KAMH 190805Z 13002KT 03/M03 A2999 RMK A01 T00331031  RH  063%=      5-min Rain = 0
KAMH 190810Z 13002KT 02/M03 A2999 RMK A01 T00241025  RH  070%=      5-min Rain = 0
KAMH 190815Z 13002KT 02/M02 A2999 RMK A01 T00241024  RH  071%=      5-min Rain = 0
KAMH 190820Z 14002KT 03/M02 A2999 RMK A01 T00301022  RH  069%=      5-min Rain = 0
KAMH 190825Z 15003KT 04/M02 A2999 RMK A01 T00361021  RH  066%=      5-min Rain = 0
KAMH 190830Z 15004KT 04/M02 A2999 RMK A01 T00431021  RH  063%=      5-min Rain = 0
KAMH 190835Z 16004KT 05/M02 A2999 RMK A01 T00461022  RH  062%=      5-min Rain = 0
KAMH 190840Z 21008G15KT 06/M02 A30 RMK A01 T00571018  RH  059%=      5-min Rain = 0
KAMH 190845Z 22009KT 07/M01 A30 RMK A01 T00731011  RH  056%=      5-min Rain = 0
KAMH 190850Z 23009KT 08/M01 A30 RMK A01 T00791014  RH  052%=      5-min Rain = 0
KAMH 190855Z 22009KT 08/M01 A30 RMK A01 T00791014  RH  052%=      5-min Rain = 0
KAMH 190900Z 23009KT 08/M01 A30 RMK A01 T00801014  RH  052%=      5-min Rain = 0
KAMH 190905Z 24008KT 08/M01 A30 RMK A01 T00801013  RH  052%=      5-min Rain = 0
KAMH 190910Z 24008KT 08/M01 A30 RMK A01 T00801012  RH  052%=      5-min Rain = 0
KAMH 190915Z 24008KT 08/M01 A30 RMK A01 T00781013  RH  053%=      5-min Rain = 0
KAMH 190920Z 25008KT 07/M01 A30 RMK A01 T00731013  RH  055%=      5-min Rain = 0
KAMH 190925Z 25008KT 07/M01 A30 RMK A01 T00681014  RH  056%=      5-min Rain = 0
KAMH 190930Z 26007KT 06/M02 A2999 RMK A01 T00601016  RH  059%=      5-min Rain = 0
KAMH 190935Z 25006KT 05/M02 A2999 RMK A01 T00501018  RH  062%=      5-min Rain = 0
KAMH 190940Z 25005KT 05/M02 A2999 RMK A01 T00461018  RH  064%=      5-min Rain = 0
KAMH 190945Z 25003KT 04/M02 A2999 RMK A01 T00431018  RH  065%=      5-min Rain = 0
KAMH 190950Z 24002KT 04/M02 A2999 RMK A01 T00411018  RH  066%=      5-min Rain = 0
KAMH 190955Z 25004KT 04/M02 A2999 RMK A01 T00421016  RH  067%=      5-min Rain = 0
KAMH 191000Z 26005KT 04/M02 A2999 RMK A01 T00431016  RH  066%=      5-min Rain = 0
KAMH 191005Z 28004KT 04/M02 A2999 RMK A01 T00371019  RH  067%=      5-min Rain = 0
KAMH 191010Z 30005KT 03/M02 A2999 RMK A01 T00311020  RH  070%=      5-min Rain = 0
KAMH 191015Z 30006KT 03/M02 A2999 RMK A01 T00311019  RH  070%=      5-min Rain = 0
KAMH 191020Z 31007KT 03/M02 A2999 RMK A01 T00331018  RH  070%=      5-min Rain = 0
KAMH 191025Z 32007KT 04/M02 A2999 RMK A01 T00351017  RH  069%=      5-min Rain = 0
KAMH 191030Z 31005KT 04/M02 A2999 RMK A01 T00351018  RH  069%=      5-min Rain = 0
KAMH 191035Z 31004KT 03/M02 A2999 RMK A01 T00331019  RH  069%=      5-min Rain = 0
KAMH 191040Z 32005KT 03/M02 A2998 RMK A01 T00311020  RH  069%=      5-min Rain = 0
KAMH 191045Z 33004KT 03/M02 A2998 RMK A01 T00271022  RH  071%=      5-min Rain = 0
KAMH 191050Z 34003KT 03/M02 A2998 RMK A01 T00251023  RH  071%=      5-min Rain = 0
KAMH 191055Z 35004KT 02/M02 A2998 RMK A01 T00241023  RH  072%=      5-min Rain = 0
KAMH 191100Z 35005KT 02/M02 A2998 RMK A01 T00211024  RH  073%=      5-min Rain = 0
KAMH 191105Z 35004KT 02/M02 A2998 RMK A01 T00211023  RH  073%=      5-min Rain = 0
KAMH 191110Z 34003KT 02/M02 A2998 RMK A01 T00211023  RH  073%=      5-min Rain = 0
KAMH 191115Z 34004KT 02/M02 A2998 RMK A01 T00201024  RH  073%=      5-min Rain = 0
KAMH 191120Z 33003KT 02/M03 A2998 RMK A01 T00151027  RH  074%=      5-min Rain = 0
KAMH 191125Z 33003KT 01/M03 A2998 RMK A01 T00121027  RH  075%=      5-min Rain = 0
KAMH 191130Z 34003KT 01/M03 A2998 RMK A01 T00111027  RH  076%=      5-min Rain = 0
KAMH 191135Z 34003KT 01/M03 A2997 RMK A01 T00111027  RH  076%=      5-min Rain = 0
KAMH 191140Z 34003KT 01/M03 A2997 RMK A01 T00131026  RH  076%=      5-min Rain = 0
KAMH 191145Z 35003KT 01/M03 A2997 RMK A01 T00121028  RH  075%=      5-min Rain = 0
KAMH 191150Z 35003KT 01/M03 A2997 RMK A01 T00131026  RH  076%=      5-min Rain = 0
KAMH 191155Z 34003KT 02/M03 A2997 RMK A01 T00151025  RH  075%=      5-min Rain = 0
KAMH 191200Z 32005KT 01/M03 A2997 RMK A01 T00131027  RH  075%=      5-min Rain = 0
KAMH 191205Z 32006KT 01/M03 A2997 RMK A01 T00101028  RH  077%=      5-min Rain = 0
KAMH 191210Z 34005KT 01/M03 A2997 RMK A01 T00111026  RH  077%=      5-min Rain = 0
KAMH 191215Z 35004KT 01/M03 A2996 RMK A01 T00121026  RH  077%=      5-min Rain = 0
KAMH 191220Z 35006KT 01/M03 A2996 RMK A01 T00121025  RH  077%=      5-min Rain = 0
KAMH 191225Z 35004KT 02/M02 A2997 RMK A01 T00161022  RH  076%=      5-min Rain = 0
KAMH 191230Z 34003KT 02/M02 A2997 RMK A01 T00171023  RH  075%=      5-min Rain = 0
KAMH 191235Z 35002KT 02/M03 A2997 RMK A01 T00171025  RH  074%=      5-min Rain = 0
KAMH 191240Z 33001KT 02/M03 A2997 RMK A01 T00161026  RH  074%=      5-min Rain = 0
KAMH 191245Z 26001KT 01/M03 A2997 RMK A01 T00141029  RH  074%=      5-min Rain = 0
KAMH 191250Z 22001KT 01/M03 A2997 RMK A01 T00141027  RH  075%=      5-min Rain = 0
KAMH 191255Z 22001KT 02/M02 A2997 RMK A01 T00191024  RH  074%=      5-min Rain = 0
KAMH 191300Z 19000KT 02/M03 A2997 RMK A01 T00211027  RH  071%=      5-min Rain = 0
KAMH 191305Z 00000KT 01/M03 A2996 RMK A01 T00091032  RH  075%=      5-min Rain = 0
KAMH 191310Z 30000KT 00/M03 A2997 RMK A01 T00041031  RH  078%=      5-min Rain = 0
KAMH 191315Z 29002KT 01/M03 A2997 RMK A01 T00061029  RH  078%=      5-min Rain = 0
KAMH 191320Z 29003KT 01/M03 A2997 RMK A01 T00081030  RH  076%=      5-min Rain = 0
KAMH 191325Z 25002KT 01/M03 A2997 RMK A01 T00061030  RH  077%=      5-min Rain = 0
KAMH 191330Z 22001KT 01/M03 A2997 RMK A01 T00091027  RH  077%=      5-min Rain = 0
KAMH 191335Z 22002KT 02/M02 A2997 RMK A01 T00151024  RH  076%=      5-min Rain = 0
KAMH 191340Z 24003KT 03/M02 A2997 RMK A01 T00251019  RH  073%=      5-min Rain = 0
KAMH 191345Z 23003KT 02/M02 A2997 RMK A01 T00201023  RH  073%=      5-min Rain = 0
KAMH 191350Z 24004KT 02/M02 A2997 RMK A01 T00211022  RH  074%=      5-min Rain = 0
KAMH 191355Z 24005KT 03/M02 A2997 RMK A01 T00251017  RH  075%=      5-min Rain = 0
KAMH 191400Z 24003KT 03/M01 A2997 RMK A01 T00311013  RH  074%=      5-min Rain = 0
KAMH 191405Z 23002KT 04/M01 A2997 RMK A01 T00421005  RH  072%=      5-min Rain = 0
KAMH 191410Z 21002KT 05/M00 A2997 RMK A01 T00531004  RH  067%=      5-min Rain = 0
KAMH 191415Z 22002KT 06/00 A2997 RMK A01 T00630001  RH  065%=      5-min Rain = 0
KAMH 191420Z 23002KT 07/01 A2997 RMK A01 T00740008  RH  064%=      5-min Rain = 0
KAMH 191425Z 24003KT 08/00 A2997 RMK A01 T008100-0  RH  057%=      5-min Rain = 0
KAMH 191430Z 22003KT 09/M00 A2997 RMK A01 T00871003  RH  054%=      5-min Rain = 0
KAMH 191435Z 22004KT 09/M01 A2997 RMK A01 T00921005  RH  051%=      5-min Rain = 0
KAMH 191440Z 21004KT 10/M00 A2997 RMK A01 T00961002  RH  051%=      5-min Rain = 0
KAMH 191445Z 21004KT 10/M00 A2997 RMK A01 T01031002  RH  049%=      5-min Rain = 0
KAMH 191450Z 20004KT 11/M00 A2997 RMK A01 T01081003  RH  047%=      5-min Rain = 0
KAMH 191455Z 21005KT 11/M00 A2997 RMK A01 T01111004  RH  046%=      5-min Rain = 0
KAMH 191500Z 23004KT 11/M00 A2997 RMK A01 T01121003  RH  045%=      5-min Rain = 0
KAMH 191505Z 22004KT 12/M00 A2997 RMK A01 T01161001  RH  045%=      5-min Rain = 0
KAMH 191510Z 21004KT 12/00 A2997 RMK A01 T01190001  RH  045%=      5-min Rain = 0
KAMH 191515Z 21004KT 13/00 A2997 RMK A01 T01250002  RH  043%=      5-min Rain = 0
KAMH 191520Z 21005KT 13/00 A2998 RMK A01 T01300001  RH  042%=      5-min Rain = 0
KAMH 191525Z 22005KT 14/00 A2998 RMK A01 T01350000  RH  040%=      5-min Rain = 0
KAMH 191530Z 23003KT 14/00 A2998 RMK A01 T014000-0  RH  039%=      5-min Rain = 0
KAMH 191535Z 23004KT 15/M00 A2998 RMK A01 T01451002  RH  037%=      5-min Rain = 0
KAMH 191540Z 22004KT 15/M00 A2998 RMK A01 T01501002  RH  036%=      5-min Rain = 0
KAMH 191545Z 22004KT 15/M00 A2998 RMK A01 T01541001  RH  035%=      5-min Rain = 0
KAMH 191550Z 21005KT 15/M00 A2998 RMK A01 T01541003  RH  035%=      5-min Rain = 0
KAMH 191555Z 20006KT 16/M00 A2998 RMK A01 T01581002  RH  034%=      5-min Rain = 0
KAMH 191600Z 19007KT 16/M00 A2997 RMK A01 T01641001  RH  033%=      5-min Rain = 0
KAMH 191605Z 19007KT 17/M00 A2997 RMK A01 T01671001  RH  032%=      5-min Rain = 0
KAMH 191610Z 20007KT 17/00 A2997 RMK A01 T01740000  RH  031%=      5-min Rain = 0
KAMH 191615Z 18008KT 17/M00 A2997 RMK A01 T01741001  RH  031%=      5-min Rain = 0
KAMH 191620Z 17009KT 18/00 A2997 RMK A01 T01760000  RH  031%=      5-min Rain = 0
KAMH 191625Z 17010KT 18/M00 A2997 RMK A01 T01781002  RH  030%=      5-min Rain = 0
KAMH 191630Z 18011KT 18/M00 A2997 RMK A01 T01831002  RH  029%=      5-min Rain = 0
KAMH 191635Z 18011KT 18/M00 A2996 RMK A01 T01841004  RH  028%=      5-min Rain = 0
KAMH 191640Z 18012KT 19/M00 A2996 RMK A01 T01891004  RH  028%=      5-min Rain = 0
KAMH 191645Z 18012KT 19/M00 A2996 RMK A01 T01911004  RH  027%=      5-min Rain = 0
KAMH 191650Z 18012KT 19/M00 A2996 RMK A01 T01921004  RH  027%=      5-min Rain = 0
KAMH 191655Z 19011KT 20/M01 A2996 RMK A01 T01951005  RH  026%=      5-min Rain = 0
KAMH 191700Z 18012KT 20/M01 A2995 RMK A01 T01961005  RH  026%=      5-min Rain = 0
KAMH 191705Z 19012KT 20/M01 A2995 RMK A01 T01981006  RH  026%=      5-min Rain = 0
KAMH 191710Z 19012KT 20/M01 A2995 RMK A01 T02011006  RH  025%=      5-min Rain = 0
KAMH 191715Z 19013G18KT 21/M01 A2994 RMK A01 T02051005  RH  025%=      5-min Rain = 0
KAMH 191720Z 19014KT 21/M01 A2994 RMK A01 T02091005  RH  024%=      5-min Rain = 0
KAMH 191725Z 20014KT 21/M01 A2994 RMK A01 T02111006  RH  024%=      5-min Rain = 0
KAMH 191730Z 18014G19KT 21/M00 A2994 RMK A01 T02141004  RH  024%=      5-min Rain = 0
KAMH 191735Z 18014KT 22/M00 A2994 RMK A01 T02161004  RH  023%=      5-min Rain = 0
KAMH 191740Z 19014G19KT 22/M01 A2993 RMK A01 T02201005  RH  023%=      5-min Rain = 0
KAMH 191745Z 19014KT 22/M01 A2993 RMK A01 T02221009  RH  022%=      5-min Rain = 0
KAMH 191750Z 18016KT 22/M01 A2993 RMK A01 T02231012  RH  021%=      5-min Rain = 0
KAMH 191755Z 18014KT 23/M01 A2993 RMK A01 T02261009  RH  021%=      5-min Rain = 0
KAMH 191800Z 18014G19KT 23/M01 A2993 RMK A01 T02291008  RH  021%=      5-min Rain = 0
KAMH 191805Z 18014KT 23/M01 A2992 RMK A01 T02321007  RH  021%=      5-min Rain = 0
KAMH 191810Z 18014KT 23/M01 A2992 RMK A01 T02331007  RH  020%=      5-min Rain = 0
KAMH 191815Z 18015KT 24/M01 A2991 RMK A01 T02351007  RH  020%=      5-min Rain = 0
KAMH 191820Z 18015G20KT 23/M01 A2991 RMK A01 T02341010  RH  020%=      5-min Rain = 0
KAMH 191825Z 19013G21KT 24/M01 A2991 RMK A01 T02401012  RH  019%=      5-min Rain = 0
KAMH 191830Z 19016KT 24/M02 A2991 RMK A01 T02401017  RH  018%=      5-min Rain = 0
KAMH 191835Z 20015G20KT 24/M02 A299 RMK A01 T02401018  RH  018%=      5-min Rain = 0
KAMH 191840Z 19014G20KT 24/M02 A299 RMK A01 T02401017  RH  018%=      5-min Rain = 0
KAMH 191845Z 19014G22KT 25/M02 A299 RMK A01 T02461016  RH  018%=      5-min Rain = 0
KAMH 191850Z 20017G24KT 24/M02 A299 RMK A01 T02381021  RH  018%=      5-min Rain = 0
KAMH 191855Z 20016KT 23/M02 A2989 RMK A01 T02311018  RH  019%=      5-min Rain = 0
KAMH 191900Z 19016KT 23/M02 A2989 RMK A01 T02311016  RH  019%=      5-min Rain = 0
KAMH 191905Z 20015G20KT 23/M02 A2989 RMK A01 T02271016  RH  020%=      5-min Rain = 0
KAMH 191910Z 19013KT 23/M02 A2989 RMK A01 T02261015  RH  020%=      5-min Rain = 0
KAMH 191915Z 19014G19KT 23/M01 A2988 RMK A01 T02301014  RH  020%=      5-min Rain = 0
KAMH 191920Z 20014G20KT 23/M02 A2988 RMK A01 T02321017  RH  019%=      5-min Rain = 0
KAMH 191925Z 19015G20KT 24/M02 A2988 RMK A01 T02391017  RH  018%=      5-min Rain = 0
KAMH 191930Z 19015G21KT 24/M02 A2987 RMK A01 T02391017  RH  018%=      5-min Rain = 0
KAMH 191935Z 20017G23KT 24/M02 A2987 RMK A01 T02401018  RH  018%=      5-min Rain = 0
KAMH 191940Z 20015G21KT 24/M02 A2986 RMK A01 T02401019  RH  018%=      5-min Rain = 0
KAMH 191945Z 19015G24KT 25/M02 A2986 RMK A01 T02451018  RH  018%=      5-min Rain = 0
KAMH 191950Z 20014G21KT 25/M02 A2986 RMK A01 T02461016  RH  018%=      5-min Rain = 0
KAMH 191955Z 20017G22KT 25/M02 A2985 RMK A01 T02471019  RH  017%=      5-min Rain = 0
KAMH 192000Z 19017G23KT 25/M02 A2985 RMK A01 T02491019  RH  017%=      5-min Rain = 0
KAMH 192005Z 19017G23KT 25/M02 A2985 RMK A01 T02491019  RH  017%=      5-min Rain = 0
KAMH 192010Z 19018G23KT 25/M02 A2984 RMK A01 T02491021  RH  017%=      5-min Rain = 0
KAMH 192015Z 21017G24KT 25/M02 A2984 RMK A01 T02481022  RH  017%=      5-min Rain = 0
KAMH 192020Z 19016G23KT 25/M02 A2984 RMK A01 T02491020  RH  017%=      5-min Rain = 0
KAMH 192025Z 20017G25KT 25/M02 A2984 RMK A01 T02501022  RH  017%=      5-min Rain = 0
KAMH 192030Z 19017G23KT 25/M02 A2983 RMK A01 T02471022  RH  017%=      5-min Rain = 0
KAMH 192035Z 21016G21KT 25/M02 A2983 RMK A01 T02451022  RH  017%=      5-min Rain = 0
KAMH 192040Z 20016KT 25/M02 A2983 RMK A01 T02461022  RH  017%=      5-min Rain = 0
KAMH 192045Z 21014G19KT 25/M02 A2983 RMK A01 T02471023  RH  017%=      5-min Rain = 0
KAMH 192050Z 19014KT 25/M02 A2983 RMK A01 T02481021  RH  017%=      5-min Rain = 0
KAMH 192055Z 20014KT 25/M02 A2982 RMK A01 T02491022  RH  017%=      5-min Rain = 0
KAMH 192100Z 20015G20KT 25/M02 A2982 RMK A01 T02471023  RH  017%=      5-min Rain = 0
KAMH 192105Z 20014G19KT 25/M02 A2982 RMK A01 T02481021  RH  017%=      5-min Rain = 0
KAMH 192110Z 20013G19KT 25/M02 A2982 RMK A01 T02521021  RH  016%=      5-min Rain = 0
KAMH 192115Z 21014G19KT 25/M02 A2982 RMK A01 T02531023  RH  016%=      5-min Rain = 0
KAMH 192120Z 20014KT 25/M02 A2982 RMK A01 T02531023  RH  016%=      5-min Rain = 0
KAMH 192125Z 20014G19KT 25/M02 A2981 RMK A01 T02531023  RH  016%=      5-min Rain = 0
KAMH 192130Z 20012G17KT 25/M02 A2982 RMK A01 T02521023  RH  016%=      5-min Rain = 0
KAMH 192135Z 20012G17KT 25/M02 A2981 RMK A01 T02541022  RH  016%=      5-min Rain = 0
KAMH 192140Z 20013G18KT 26/M02 A2981 RMK A01 T02551021  RH  016%=      5-min Rain = 0
KAMH 192145Z 20013G18KT 25/M02 A2981 RMK A01 T02521022  RH  016%=      5-min Rain = 0
KAMH 192150Z 19015KT 25/M02 A2981 RMK A01 T02511022  RH  016%=      5-min Rain = 0
KAMH 192155Z 19013G19KT 25/M02 A2981 RMK A01 T02491021  RH  017%=      5-min Rain = 0
KAMH 192200Z 20015KT 25/M02 A2981 RMK A01 T02481022  RH  017%=      5-min Rain = 0
KAMH 192205Z 20012KT 25/M02 A2981 RMK A01 T02461022  RH  017%=      5-min Rain = 0
KAMH 192210Z 20013KT 25/M02 A2981 RMK A01 T02461021  RH  017%=      5-min Rain = 0
KAMH 192215Z 20013G19KT 25/M02 A2981 RMK A01 T02471021  RH  017%=      5-min Rain = 0
KAMH 192220Z 20012G19KT 25/M02 A2981 RMK A01 T02461021  RH  017%=      5-min Rain = 0
KAMH 192225Z 19011KT 25/M02 A2981 RMK A01 T02461019  RH  017%=      5-min Rain = 0
KAMH 192230Z 19012KT 25/M02 A298 RMK A01 T02461020  RH  017%=      5-min Rain = 0
KAMH 192235Z 19012KT 24/M02 A298 RMK A01 T02441020  RH  017%=      5-min Rain = 0
KAMH 192240Z 19012KT 24/M02 A298 RMK A01 T02391021  RH  018%=      5-min Rain = 0
KAMH 192245Z 19011KT 24/M02 A298 RMK A01 T02351022  RH  018%=      5-min Rain = 0
KAMH 192250Z 19010KT 23/M02 A298 RMK A01 T02311022  RH  019%=      5-min Rain = 0
KAMH 192255Z 19011KT 23/M02 A298 RMK A01 T02251022  RH  019%=      5-min Rain = 0
KAMH 192300Z 18010KT 22/M02 A298 RMK A01 T02171020  RH  021%=      5-min Rain = 0
KAMH 192305Z 18011KT 21/M02 A298 RMK A01 T02121018  RH  021%=      5-min Rain = 0
KAMH 192310Z 18010KT 21/M02 A298 RMK A01 T02111019  RH  022%=      5-min Rain = 0
KAMH 192315Z 18010KT 21/M02 A298 RMK A01 T02101018  RH  022%=      5-min Rain = 0
KAMH 192320Z 18009KT 21/M02 A298 RMK A01 T02071017  RH  022%=      5-min Rain = 0
KAMH 192325Z 18008KT 20/M02 A2981 RMK A01 T02021018  RH  023%=      5-min Rain = 0
KAMH 192330Z 18008KT 20/M02 A2981 RMK A01 T01961017  RH  024%=      5-min Rain = 0
KAMH 192335Z 18008KT 19/M02 A2981 RMK A01 T01901017  RH  025%=      5-min Rain = 0
KAMH 192340Z 18009KT 19/M02 A2981 RMK A01 T01851018  RH  025%=      5-min Rain = 0
KAMH 192345Z 18009KT 18/M02 A2981 RMK A01 T01821020  RH  026%=      5-min Rain = 0
KAMH 192350Z 18009KT 18/M02 A2981 RMK A01 T01781019  RH  026%=      5-min Rain = 0
KAMH 192355Z 18009KT 18/M02 A2981 RMK A01 T01761018  RH  027%=      5-min Rain = 0
KAMH 200000Z 18008KT 18/M02 A2981 RMK A01 T01771017  RH  027%=      5-min Rain = 0
KAMH 200005Z 17009KT 18/M02 A2981 RMK A01 T01781016  RH  027%=      5-min Rain = 0
KAMH 200010Z 18009KT 18/M02 A2981 RMK A01 T01791016  RH  027%=      5-min Rain = 0
KAMH 200015Z 18009KT 18/M02 A2981 RMK A01 T01771015  RH  027%=      5-min Rain = 0
KAMH 200020Z 18010KT 17/M02 A2981 RMK A01 T01741015  RH  028%=      5-min Rain = 0
KAMH 200025Z 18010KT 17/M02 A2981 RMK A01 T01711015  RH  028%=      5-min Rain = 0
KAMH 200030Z 18009KT 17/M01 A2981 RMK A01 T01681014  RH  029%=      5-min Rain = 0
KAMH 200035Z 18010KT 17/M01 A2981 RMK A01 T01661014  RH  030%=      5-min Rain = 0
KAMH 200040Z 18011KT 17/M02 A2981 RMK A01 T01671015  RH  029%=      5-min Rain = 0
KAMH 200045Z 18011KT 17/M02 A2981 RMK A01 T01701015  RH  028%=      5-min Rain = 0
KAMH 200050Z 18011KT 17/M02 A2981 RMK A01 T01701016  RH  028%=      5-min Rain = 0
KAMH 200055Z 17011KT 17/M02 A2981 RMK A01 T01661018  RH  029%=      5-min Rain = 0
KAMH 200100Z 18010KT 16/M02 A2981 RMK A01 T01591018  RH  030%=      5-min Rain = 0
KAMH 200105Z 18010KT 15/M02 A2982 RMK A01 T01541019  RH  031%=      5-min Rain = 0
KAMH 200110Z 18009KT 15/M02 A2981 RMK A01 T01511019  RH  031%=      5-min Rain = 0
KAMH 200115Z 18009KT 15/M02 A2981 RMK A01 T01491019  RH  032%=      5-min Rain = 0
KAMH 200120Z 19010KT 14/M02 A2982 RMK A01 T01441020  RH  032%=      5-min Rain = 0
KAMH 200125Z 19010KT 14/M02 A2982 RMK A01 T01431021  RH  032%=      5-min Rain = 0
KAMH 200130Z 18010KT 14/M02 A2982 RMK A01 T01401022  RH  033%=      5-min Rain = 0
KAMH 200135Z 19010KT 14/M02 A2983 RMK A01 T01361021  RH  034%=      5-min Rain = 0
KAMH 200140Z 19009KT 14/M02 A2983 RMK A01 T01351020  RH  034%=      5-min Rain = 0
KAMH 200145Z 18010KT 14/M02 A2983 RMK A01 T01361019  RH  034%=      5-min Rain = 0
KAMH 200150Z 19010KT 14/M02 A2982 RMK A01 T01371018  RH  035%=      5-min Rain = 0
KAMH 200155Z 19010KT 14/M02 A2982 RMK A01 T01391018  RH  034%=      5-min Rain = 0
KAMH 200200Z 19010KT 14/M02 A2982 RMK A01 T01401018  RH  034%=      5-min Rain = 0
KAMH 200205Z 19009KT 14/M02 A2982 RMK A01 T01371018  RH  034%=      5-min Rain = 0
KAMH 200210Z 19008KT 13/M02 A2983 RMK A01 T01331018  RH  035%=      5-min Rain = 0
KAMH 200215Z 19008KT 13/M02 A2983 RMK A01 T01291018  RH  036%=      5-min Rain = 0
KAMH 200220Z 19008KT 13/M02 A2983 RMK A01 T01281017  RH  037%=      5-min Rain = 0
KAMH 200225Z 19008KT 13/M02 A2983 RMK A01 T01251018  RH  037%=      5-min Rain = 0
KAMH 200230Z 18008KT 12/M02 A2983 RMK A01 T01191018  RH  039%=      5-min Rain = 0
KAMH 200235Z 19007KT 11/M02 A2983 RMK A01 T01141018  RH  040%=      5-min Rain = 0
KAMH 200240Z 19007KT 11/M02 A2983 RMK A01 T01131017  RH  041%=      5-min Rain = 0
KAMH 200245Z 19007KT 11/M02 A2983 RMK A01 T01071018  RH  042%=      5-min Rain = 0
KAMH 200250Z 19007KT 10/M02 A2983 RMK A01 T01031018  RH  043%=      5-min Rain = 0
KAMH 200255Z 19007KT 11/M02 A2983 RMK A01 T01051016  RH  043%=      5-min Rain = 0
KAMH 200300Z 19007KT 11/M02 A2983 RMK A01 T01101016  RH  042%=      5-min Rain = 0
KAMH 200305Z 19008KT 11/M02 A2983 RMK A01 T01131016  RH  041%=      5-min Rain = 0
KAMH 200310Z 18008KT 11/M02 A2983 RMK A01 T01121017  RH  041%=      5-min Rain = 0
KAMH 200315Z 18007KT 11/M02 A2983 RMK A01 T01091018  RH  041%=      5-min Rain = 0
KAMH 200320Z 18007KT 11/M02 A2983 RMK A01 T01081018  RH  042%=      5-min Rain = 0
KAMH 200325Z 18007KT 11/M02 A2983 RMK A01 T01081018  RH  042%=      5-min Rain = 0
KAMH 200330Z 19007KT 11/M02 A2983 RMK A01 T01091017  RH  042%=      5-min Rain = 0
KAMH 200335Z 19008KT 11/M02 A2983 RMK A01 T01121016  RH  041%=      5-min Rain = 0
KAMH 200340Z 18008KT 11/M02 A2983 RMK A01 T01131018  RH  041%=      5-min Rain = 0
KAMH 200345Z 19008KT 11/M02 A2983 RMK A01 T01081019  RH  042%=      5-min Rain = 0
KAMH 200350Z 18007KT 11/M02 A2983 RMK A01 T01071018  RH  042%=      5-min Rain = 0
KAMH 200355Z 18007KT 10/M02 A2983 RMK A01 T01031019  RH  043%=      5-min Rain = 0
KAMH 200400Z 17006KT 10/M02 A2983 RMK A01 T00961019  RH  045%=      5-min Rain = 0
KAMH 200405Z 18005KT 09/M02 A2983 RMK A01 T00921017  RH  047%=      5-min Rain = 0
KAMH 200410Z 18006KT 09/M02 A2983 RMK A01 T00891015  RH  049%=      5-min Rain = 0
KAMH 200415Z 19006KT 09/M02 A2983 RMK A01 T00921015  RH  047%=      5-min Rain = 0
KAMH 200420Z 19006KT 10/M02 A2983 RMK A01 T01001015  RH  045%=      5-min Rain = 0
KAMH 200425Z 18005KT 10/M02 A2983 RMK A01 T01021017  RH  044%=      5-min Rain = 0
KAMH 200430Z 17004KT 10/M02 A2983 RMK A01 T00971016  RH  045%=      5-min Rain = 0
KAMH 200435Z 18005KT 10/M02 A2983 RMK A01 T00961016  RH  046%=      5-min Rain = 0
KAMH 200440Z 18005KT 10/M02 A2983 RMK A01 T00971015  RH  046%=      5-min Rain = 0
KAMH 200445Z 18006KT 10/M01 A2983 RMK A01 T00971014  RH  046%=      5-min Rain = 0
KAMH 200450Z 19008KT 10/M01 A2983 RMK A01 T00991010  RH  047%=      5-min Rain = 0
KAMH 200455Z 19009KT 12/M01 A2983 RMK A01 T01161006  RH  044%=      5-min Rain = 0
KAMH 200500Z 19010KT 13/M01 A2983 RMK A01 T01261007  RH  040%=      5-min Rain = 0
KAMH 200505Z 18010KT 13/M01 A2983 RMK A01 T01281008  RH  039%=      5-min Rain = 0
KAMH 200510Z 19010KT 13/M01 A2983 RMK A01 T01271007  RH  040%=      5-min Rain = 0
KAMH 200515Z 19011KT 13/M01 A2983 RMK A01 T01291006  RH  040%=      5-min Rain = 0
KAMH 200520Z 18011KT 13/M00 A2983 RMK A01 T01281004  RH  040%=      5-min Rain = 0
KAMH 200525Z 18010KT 13/M00 A2983 RMK A01 T01271001  RH  042%=      5-min Rain = 0
KAMH 200530Z 18010KT 13/00 A2982 RMK A01 T01290002  RH  042%=      5-min Rain = 0
KAMH 200535Z 19010KT 13/00 A2982 RMK A01 T01310002  RH  042%=      5-min Rain = 0
KAMH 200540Z 19011KT 13/00 A2982 RMK A01 T01340001  RH  040%=      5-min Rain = 0
KAMH 200545Z 19010KT 14/00 A2982 RMK A01 T01350000  RH  040%=      5-min Rain = 0
KAMH 200550Z 19011KT 14/00 A2982 RMK A01 T01360000  RH  040%=      5-min Rain = 0
KAMH 200555Z 19011KT 14/00 A2982 RMK A01 T01350000  RH  040%=      5-min Rain = 0

Page generated in 0.0155 seconds.